Perdue, Canada
Current Conditions -  °F | °C
As of 10:00 PM on Wednesday 26 Nov 2014 (Local Time) from CYXE Reporting Station
Overcast Overcast  
Wind Chill: -10°   Ceiling: 3300
Heat Index:   Visibility: 15mi
Dew Point:   Wind: 10mph
Humidity: 78%   Direction: 180°S
Pressure: 30.28"   Gusts: NA
Location:  52.05°N, 107.55°W
Report Text: CYXE 270400Z 18009KT 15SM OVC033 M15/M18 A3028 RMK SC8 SLP303
Loading
Personal Weather Stations






























Interactive Weather Map New forecast layout! Learn more

10-Day Weather Forecast

Advertisements
Track Severe Weather on mobile